sensor_id;sensor_type;location;lat;lon;timestamp;pressure;altitude;pressure_sealevel;temperature;humidity
35655;BME280;21773;50.010;19.972;2022-12-18T00:00:59;100178.97;;;1.91;53.19
35655;BME280;21773;50.010;19.972;2022-12-18T00:04:06;100175.22;;;1.93;52.97
35655;BME280;21773;50.010;19.972;2022-12-18T00:07:11;100184.16;;;1.92;53.37
35655;BME280;21773;50.010;19.972;2022-12-18T00:10:15;100185.31;;;1.90;52.97
35655;BME280;21773;50.010;19.972;2022-12-18T00:13:18;100188.41;;;1.95;53.05
35655;BME280;21773;50.010;19.972;2022-12-18T00:16:23;100193.84;;;1.93;52.80
35655;BME280;21773;50.010;19.972;2022-12-18T00:19:27;100194.84;;;2.02;52.68
35655;BME280;21773;50.010;19.972;2022-12-18T00:22:32;100201.13;;;2.01;52.93
35655;BME280;21773;50.010;19.972;2022-12-18T00:25:36;100200.00;;;1.94;53.06
35655;BME280;21773;50.010;19.972;2022-12-18T00:28:39;100198.22;;;2.04;52.63
35655;BME280;21773;50.010;19.972;2022-12-18T00:31:43;100212.38;;;2.04;52.62
35655;BME280;21773;50.010;19.972;2022-12-18T00:34:46;100215.44;;;2.00;52.70
35655;BME280;21773;50.010;19.972;2022-12-18T00:37:51;100213.19;;;1.95;52.96
35655;BME280;21773;50.010;19.972;2022-12-18T00:40:55;100215.16;;;2.03;53.10
35655;BME280;21773;50.010;19.972;2022-12-18T00:43:58;100228.88;;;2.08;52.86
35655;BME280;21773;50.010;19.972;2022-12-18T00:47:00;100229.84;;;2.07;52.74
35655;BME280;21773;50.010;19.972;2022-12-18T00:50:04;100236.47;;;2.12;52.21
35655;BME280;21773;50.010;19.972;2022-12-18T00:53:09;100237.44;;;2.11;52.52
35655;BME280;21773;50.010;19.972;2022-12-18T00:56:12;100238.78;;;1.96;52.85
35655;BME280;21773;50.010;19.972;2022-12-18T00:59:17;100240.63;;;2.05;52.29
35655;BME280;21773;50.010;19.972;2022-12-18T01:02:21;100252.09;;;2.06;52.41
35655;BME280;21773;50.010;19.972;2022-12-18T01:05:25;100249.28;;;1.98;52.40
35655;BME280;21773;50.010;19.972;2022-12-18T01:08:29;100250.56;;;2.03;52.76
35655;BME280;21773;50.010;19.972;2022-12-18T01:11:33;100259.56;;;2.12;52.71
35655;BME280;21773;50.010;19.972;2022-12-18T01:14:38;100257.88;;;2.11;52.72
35655;BME280;21773;50.010;19.972;2022-12-18T01:17:42;100269.34;;;2.11;52.54
35655;BME280;21773;50.010;19.972;2022-12-18T01:20:46;100273.59;;;2.14;52.42
35655;BME280;21773;50.010;19.972;2022-12-18T01:23:53;100268.06;;;2.06;52.29
35655;BME280;21773;50.010;19.972;2022-12-18T01:26:57;100270.91;;;2.14;52.09
35655;BME280;21773;50.010;19.972;2022-12-18T01:30:01;100275.19;;;2.05;52.38
35655;BME280;21773;50.010;19.972;2022-12-18T01:33:05;100273.59;;;2.14;52.48
35655;BME280;21773;50.010;19.972;2022-12-18T01:36:15;100284.47;;;2.11;51.97
35655;BME280;21773;50.010;19.972;2022-12-18T01:39:20;100292.44;;;2.11;52.25
35655;BME280;21773;50.010;19.972;2022-12-18T01:42:23;100294.19;;;2.22;52.21
35655;BME280;21773;50.010;19.972;2022-12-18T01:45:29;100286.75;;;2.25;52.06
35655;BME280;21773;50.010;19.972;2022-12-18T01:48:33;100287.88;;;2.23;51.84
35655;BME280;21773;50.010;19.972;2022-12-18T01:51:38;100292.78;;;2.17;52.07
35655;BME280;21773;50.010;19.972;2022-12-18T01:54:43;100298.41;;;2.24;51.79
35655;BME280;21773;50.010;19.972;2022-12-18T01:57:47;100289.22;;;2.07;52.31
35655;BME280;21773;50.010;19.972;2022-12-18T02:00:54;100295.75;;;1.94;52.81
35655;BME280;21773;50.010;19.972;2022-12-18T02:04:19;100294.63;;;1.96;52.83
35655;BME280;21773;50.010;19.972;2022-12-18T02:07:29;100300.53;;;2.00;52.88
35655;BME280;21773;50.010;19.972;2022-12-18T02:10:43;100307.97;;;2.06;52.63
35655;BME280;21773;50.010;19.972;2022-12-18T02:13:54;100310.22;;;2.10;52.36
35655;BME280;21773;50.010;19.972;2022-12-18T02:17:04;100316.84;;;2.16;52.19
35655;BME280;21773;50.010;19.972;2022-12-18T02:20:14;100322.47;;;2.23;52.10
35655;BME280;21773;50.010;19.972;2022-12-18T02:23:32;100331.72;;;2.18;52.41
35655;BME280;21773;50.010;19.972;2022-12-18T02:26:47;100339.13;;;2.15;51.98
35655;BME280;21773;50.010;19.972;2022-12-18T02:29:56;100335.81;;;2.02;52.18
35655;BME280;21773;50.010;19.972;2022-12-18T02:33:04;100344.13;;;2.08;52.49
35655;BME280;21773;50.010;19.972;2022-12-18T02:36:11;100339.13;;;2.15;52.39
35655;BME280;21773;50.010;19.972;2022-12-18T02:39:19;100344.69;;;2.12;52.00
35655;BME280;21773;50.010;19.972;2022-12-18T02:42:33;100343.72;;;2.13;52.50
35655;BME280;21773;50.010;19.972;2022-12-18T02:45:46;100348.47;;;2.09;52.29
35655;BME280;21773;50.010;19.972;2022-12-18T02:48:52;100358.00;;;2.12;52.34
35655;BME280;21773;50.010;19.972;2022-12-18T02:52:06;100364.63;;;2.17;52.55
35655;BME280;21773;50.010;19.972;2022-12-18T02:55:22;100370.78;;;2.18;52.10
35655;BME280;21773;50.010;19.972;2022-12-18T02:58:44;100370.78;;;2.18;51.75
35655;BME280;21773;50.010;19.972;2022-12-18T03:02:04;100372.03;;;2.14;51.78
35655;BME280;21773;50.010;19.972;2022-12-18T03:05:14;100368.41;;;2.15;52.14
35655;BME280;21773;50.010;19.972;2022-12-18T03:08:22;100378.84;;;2.07;52.44
35655;BME280;21773;50.010;19.972;2022-12-18T03:11:32;100374.34;;;2.07;52.02
35655;BME280;21773;50.010;19.972;2022-12-18T03:15:01;100392.84;;;2.09;51.80
35655;BME280;21773;50.010;19.972;2022-12-18T03:18:10;100387.53;;;2.09;52.16
35655;BME280;21773;50.010;19.972;2022-12-18T03:21:18;100388.97;;;2.13;51.87
35655;BME280;21773;50.010;19.972;2022-12-18T03:24:24;100390.69;;;2.24;51.49
35655;BME280;21773;50.010;19.972;2022-12-18T03:27:31;100370.41;;;2.02;52.00
35655;BME280;21773;50.010;19.972;2022-12-18T03:30:45;100405.81;;;2.23;51.85
35655;BME280;21773;50.010;19.972;2022-12-18T03:33:52;100406.63;;;2.14;51.54
35655;BME280;21773;50.010;19.972;2022-12-18T03:37:01;100407.69;;;2.11;51.48
35655;BME280;21773;50.010;19.972;2022-12-18T03:40:07;100413.16;;;2.10;51.45
35655;BME280;21773;50.010;19.972;2022-12-18T03:43:19;100414.38;;;2.06;51.54
35655;BME280;21773;50.010;19.972;2022-12-18T03:46:28;100420.81;;;2.03;51.85
35655;BME280;21773;50.010;19.972;2022-12-18T03:49:36;100407.97;;;1.88;52.25
35655;BME280;21773;50.010;19.972;2022-12-18T03:52:47;100426.03;;;2.05;52.29
35655;BME280;21773;50.010;19.972;2022-12-18T03:55:53;100428.28;;;2.09;51.81
35655;BME280;21773;50.010;19.972;2022-12-18T03:58:59;100429.03;;;2.21;51.65
35655;BME280;21773;50.010;19.972;2022-12-18T04:02:08;100422.75;;;2.01;51.43
35655;BME280;21773;50.010;19.972;2022-12-18T04:05:13;100434.97;;;2.04;51.77
35655;BME280;21773;50.010;19.972;2022-12-18T04:08:19;100440.47;;;2.12;51.62
35655;BME280;21773;50.010;19.972;2022-12-18T04:11:34;100439.97;;;2.18;51.85
35655;BME280;21773;50.010;19.972;2022-12-18T04:14:38;100439.84;;;2.20;51.38
35655;BME280;21773;50.010;19.972;2022-12-18T04:17:48;100445.84;;;2.22;51.65
35655;BME280;21773;50.010;19.972;2022-12-18T04:20:55;100442.88;;;2.15;51.55
35655;BME280;21773;50.010;19.972;2022-12-18T04:23:59;100445.28;;;2.18;51.36
35655;BME280;21773;50.010;19.972;2022-12-18T04:27:03;100454.34;;;2.15;51.61
35655;BME280;21773;50.010;19.972;2022-12-18T04:30:13;100453.06;;;2.10;51.83
35655;BME280;21773;50.010;19.972;2022-12-18T04:33:19;100461.25;;;2.18;51.74
35655;BME280;21773;50.010;19.972;2022-12-18T04:36:26;100462.22;;;2.17;51.32
35655;BME280;21773;50.010;19.972;2022-12-18T04:39:30;100465.34;;;2.22;51.25
35655;BME280;21773;50.010;19.972;2022-12-18T04:42:39;100468.25;;;2.19;51.10
35655;BME280;21773;50.010;19.972;2022-12-18T04:45:42;100478.81;;;2.30;51.33
35655;BME280;21773;50.010;19.972;2022-12-18T04:48:47;100467.59;;;2.27;51.27
35655;BME280;21773;50.010;19.972;2022-12-18T04:51:51;100485.00;;;2.31;51.46
35655;BME280;21773;50.010;19.972;2022-12-18T04:54:55;100482.13;;;2.23;51.42
35655;BME280;21773;50.010;19.972;2022-12-18T04:57:58;100483.63;;;2.15;51.59
35655;BME280;21773;50.010;19.972;2022-12-18T05:01:02;100491.38;;;2.18;51.31
35655;BME280;21773;50.010;19.972;2022-12-18T05:04:07;100496.69;;;2.18;51.47
35655;BME280;21773;50.010;19.972;2022-12-18T05:07:10;100505.97;;;2.24;51.54
35655;BME280;21773;50.010;19.972;2022-12-18T05:10:14;100501.72;;;2.22;51.06
35655;BME280;21773;50.010;19.972;2022-12-18T05:13:17;100492.44;;;2.16;51.11
35655;BME280;21773;50.010;19.972;2022-12-18T05:16:21;100500.69;;;2.13;51.37
35655;BME280;21773;50.010;19.972;2022-12-18T05:19:26;100502.69;;;2.21;51.03
35655;BME280;21773;50.010;19.972;2022-12-18T05:22:29;100503.31;;;2.24;50.96
35655;BME280;21773;50.010;19.972;2022-12-18T05:25:33;100510.19;;;2.27;50.70
35655;BME280;21773;50.010;19.972;2022-12-18T05:28:37;100523.38;;;2.28;51.17
35655;BME280;21773;50.010;19.972;2022-12-18T05:31:40;100520.13;;;2.25;50.96
35655;BME280;21773;50.010;19.972;2022-12-18T05:34:45;100525.28;;;2.26;50.96
35655;BME280;21773;50.010;19.972;2022-12-18T05:37:49;100515.38;;;2.28;50.70
35655;BME280;21773;50.010;19.972;2022-12-18T05:40:52;100519.78;;;2.18;51.00
35655;BME280;21773;50.010;19.972;2022-12-18T05:43:56;100526.41;;;2.24;51.09
35655;BME280;21773;50.010;19.972;2022-12-18T05:46:59;100540.19;;;2.29;50.97
35655;BME280;21773;50.010;19.972;2022-12-18T05:50:05;100537.63;;;2.27;50.66
35655;BME280;21773;50.010;19.972;2022-12-18T05:53:09;100542.50;;;2.22;51.02
35655;BME280;21773;50.010;19.972;2022-12-18T05:56:14;100537.44;;;2.19;51.00
35655;BME280;21773;50.010;19.972;2022-12-18T05:59:18;100542.31;;;2.14;51.38
35655;BME280;21773;50.010;19.972;2022-12-18T06:02:21;100546.66;;;2.15;51.11
35655;BME280;21773;50.010;19.972;2022-12-18T06:05:27;100555.84;;;2.11;50.83
35655;BME280;21773;50.010;19.972;2022-12-18T06:08:30;100560.00;;;2.04;51.44
35655;BME280;21773;50.010;19.972;2022-12-18T06:11:35;100568.09;;;2.02;51.25
35655;BME280;21773;50.010;19.972;2022-12-18T06:14:39;100567.13;;;2.03;51.32
35655;BME280;21773;50.010;19.972;2022-12-18T06:17:42;100572.06;;;2.08;50.97
35655;BME280;21773;50.010;19.972;2022-12-18T06:20:55;100576.44;;;2.09;51.07
35655;BME280;21773;50.010;19.972;2022-12-18T06:23:59;100580.78;;;2.10;51.09
35655;BME280;21773;50.010;19.972;2022-12-18T06:27:03;100568.28;;;2.10;51.02
35655;BME280;21773;50.010;19.972;2022-12-18T06:30:08;100575.56;;;2.08;50.89
35655;BME280;21773;50.010;19.972;2022-12-18T06:33:11;100575.47;;;2.10;51.29
35655;BME280;21773;50.010;19.972;2022-12-18T06:36:16;100584.16;;;2.12;51.03
35655;BME280;21773;50.010;19.972;2022-12-18T06:39:20;100584.53;;;2.07;50.89
35655;BME280;21773;50.010;19.972;2022-12-18T06:42:23;100563.16;;;1.98;50.96
35655;BME280;21773;50.010;19.972;2022-12-18T06:45:27;100589.34;;;2.13;51.01
35655;BME280;21773;50.010;19.972;2022-12-18T06:48:31;100598.03;;;2.15;51.12
35655;BME280;21773;50.010;19.972;2022-12-18T06:51:37;100601.72;;;2.03;50.95
35655;BME280;21773;50.010;19.972;2022-12-18T06:54:40;100609.78;;;2.13;50.92
35655;BME280;21773;50.010;19.972;2022-12-18T06:57:44;100610.38;;;2.16;51.20
35655;BME280;21773;50.010;19.972;2022-12-18T07:00:47;100609.41;;;2.17;51.22
35655;BME280;21773;50.010;19.972;2022-12-18T07:03:52;100622.22;;;2.24;50.73
35655;BME280;21773;50.010;19.972;2022-12-18T07:06:58;100623.28;;;2.21;51.39
35655;BME280;21773;50.010;19.972;2022-12-18T07:10:02;100631.50;;;2.29;50.85
35655;BME280;21773;50.010;19.972;2022-12-18T07:13:05;100627.75;;;2.32;50.64
35655;BME280;21773;50.010;19.972;2022-12-18T07:16:10;100636.94;;;2.39;50.49
35655;BME280;21773;50.010;19.972;2022-12-18T07:19:23;100633.16;;;2.41;50.15
35655;BME280;21773;50.010;19.972;2022-12-18T07:22:27;100650.56;;;2.45;50.39
35655;BME280;21773;50.010;19.972;2022-12-18T07:25:33;100655.38;;;2.51;50.16
35655;BME280;21773;50.010;19.972;2022-12-18T07:28:38;100651.88;;;2.51;50.14
35655;BME280;21773;50.010;19.972;2022-12-18T07:31:41;100654.28;;;2.54;50.23
35655;BME280;21773;50.010;19.972;2022-12-18T07:34:45;100662.75;;;2.59;49.90
35655;BME280;21773;50.010;19.972;2022-12-18T07:37:50;100666.44;;;2.68;49.72
35655;BME280;21773;50.010;19.972;2022-12-18T07:40:53;100680.84;;;2.65;49.74
35655;BME280;21773;50.010;19.972;2022-12-18T07:43:56;100674.44;;;2.68;49.80
35655;BME280;21773;50.010;19.972;2022-12-18T07:47:00;100675.97;;;2.70;49.71
35655;BME280;21773;50.010;19.972;2022-12-18T07:50:06;100680.06;;;2.74;49.76
35655;BME280;21773;50.010;19.972;2022-12-18T07:53:11;100684.81;;;2.71;49.68
35655;BME280;21773;50.010;19.972;2022-12-18T07:56:16;100692.88;;;2.80;49.50
35655;BME280;21773;50.010;19.972;2022-12-18T07:59:28;100685.75;;;2.81;49.63
35655;BME280;21773;50.010;19.972;2022-12-18T08:02:32;100696.13;;;2.84;49.63
35655;BME280;21773;50.010;19.972;2022-12-18T08:05:36;100687.31;;;2.83;49.35
35655;BME280;21773;50.010;19.972;2022-12-18T08:08:41;100699.25;;;2.89;49.64
35655;BME280;21773;50.010;19.972;2022-12-18T08:11:44;100687.97;;;2.96;48.95
35655;BME280;21773;50.010;19.972;2022-12-18T08:14:48;100696.09;;;2.95;49.15
35655;BME280;21773;50.010;19.972;2022-12-18T08:17:51;100694.59;;;3.02;49.03
35655;BME280;21773;50.010;19.972;2022-12-18T08:20:54;100699.16;;;3.11;48.91
35655;BME280;21773;50.010;19.972;2022-12-18T08:24:00;100702.00;;;3.19;48.88
35655;BME280;21773;50.010;19.972;2022-12-18T08:27:04;100699.34;;;3.40;48.38
35655;BME280;21773;50.010;19.972;2022-12-18T08:30:27;100713.69;;;3.48;47.81
35655;BME280;21773;50.010;19.972;2022-12-18T08:33:31;100706.13;;;3.54;47.84
35655;BME280;21773;50.010;19.972;2022-12-18T08:36:35;100710.28;;;3.67;48.11
35655;BME280;21773;50.010;19.972;2022-12-18T08:39:40;100714.00;;;3.76;47.73
35655;BME280;21773;50.010;19.972;2022-12-18T08:42:43;100709.25;;;3.89;47.60
35655;BME280;21773;50.010;19.972;2022-12-18T08:46:04;100713.34;;;3.93;46.82
35655;BME280;21773;50.010;19.972;2022-12-18T08:49:09;100712.81;;;3.99;46.44
35655;BME280;21773;50.010;19.972;2022-12-18T08:52:12;100720.72;;;4.10;46.78
35655;BME280;21773;50.010;19.972;2022-12-18T08:55:17;100732.97;;;4.22;46.49
35655;BME280;21773;50.010;19.972;2022-12-18T08:58:22;100725.69;;;4.34;46.23
35655;BME280;21773;50.010;19.972;2022-12-18T09:01:25;100734.16;;;4.39;45.58
35655;BME280;21773;50.010;19.972;2022-12-18T09:04:29;100737.69;;;4.49;44.95
35655;BME280;21773;50.010;19.972;2022-12-18T09:07:33;100734.88;;;4.60;44.89
35655;BME280;21773;50.010;19.972;2022-12-18T09:10:42;100739.25;;;4.80;44.90
35655;BME280;21773;50.010;19.972;2022-12-18T09:13:46;100743.34;;;5.04;44.86
35655;BME280;21773;50.010;19.972;2022-12-18T09:16:50;100743.19;;;5.24;44.09
35655;BME280;21773;50.010;19.972;2022-12-18T09:19:53;100742.19;;;5.45;43.29
35655;BME280;21773;50.010;19.972;2022-12-18T09:22:56;100726.38;;;5.61;42.55
35655;BME280;21773;50.010;19.972;2022-12-18T09:26:01;100751.53;;;5.87;42.14
35655;BME280;21773;50.010;19.972;2022-12-18T09:29:04;100750.06;;;6.02;41.69
35655;BME280;21773;50.010;19.972;2022-12-18T09:32:09;100753.53;;;6.13;41.32
35655;BME280;21773;50.010;19.972;2022-12-18T09:35:17;100761.13;;;6.17;41.27
35655;BME280;21773;50.010;19.972;2022-12-18T09:38:20;100758.00;;;6.22;40.82
35655;BME280;21773;50.010;19.972;2022-12-18T09:41:41;100755.22;;;6.41;41.14
35655;BME280;21773;50.010;19.972;2022-12-18T09:44:49;100746.94;;;6.62;40.00
35655;BME280;21773;50.010;19.972;2022-12-18T09:47:56;100740.22;;;6.93;39.76
35655;BME280;21773;50.010;19.972;2022-12-18T09:51:04;100745.81;;;7.17;39.12
35655;BME280;21773;50.010;19.972;2022-12-18T09:54:14;100755.28;;;7.29;38.43
35655;BME280;21773;50.010;19.972;2022-12-18T09:57:23;100760.56;;;7.39;38.65
35655;BME280;21773;50.010;19.972;2022-12-18T10:00:27;100742.94;;;7.36;38.81
35655;BME280;21773;50.010;19.972;2022-12-18T10:03:31;100760.63;;;7.73;38.46
35655;BME280;21773;50.010;19.972;2022-12-18T10:06:38;100755.84;;;8.10;38.17
35655;BME280;21773;50.010;19.972;2022-12-18T10:09:52;100747.44;;;8.47;36.70
35655;BME280;21773;50.010;19.972;2022-12-18T10:13:09;100757.19;;;9.55;35.55
35655;BME280;21773;50.010;19.972;2022-12-18T10:16:20;100752.34;;;10.61;33.46
35655;BME280;21773;50.010;19.972;2022-12-18T10:19:39;100745.56;;;12.37;30.31
35655;BME280;21773;50.010;19.972;2022-12-18T10:22:56;100747.72;;;13.84;28.81
35655;BME280;21773;50.010;19.972;2022-12-18T10:26:04;100761.00;;;14.76;26.80
35655;BME280;21773;50.010;19.972;2022-12-18T10:29:12;100749.47;;;15.74;24.98
35655;BME280;21773;50.010;19.972;2022-12-18T10:32:18;100739.75;;;16.88;24.17
35655;BME280;21773;50.010;19.972;2022-12-18T10:35:24;100735.88;;;17.65;23.70
35655;BME280;21773;50.010;19.972;2022-12-18T10:38:29;100736.13;;;18.25;22.15
35655;BME280;21773;50.010;19.972;2022-12-18T10:41:33;100726.19;;;18.85;21.88
35655;BME280;21773;50.010;19.972;2022-12-18T10:44:38;100729.31;;;19.41;21.35
35655;BME280;21773;50.010;19.972;2022-12-18T10:47:43;100730.00;;;19.90;20.61
35655;BME280;21773;50.010;19.972;2022-12-18T10:50:49;100713.19;;;20.33;20.22
35655;BME280;21773;50.010;19.972;2022-12-18T10:54:15;100725.06;;;20.62;19.70
35655;BME280;21773;50.010;19.972;2022-12-18T10:57:32;100719.94;;;20.94;19.90
35655;BME280;21773;50.010;19.972;2022-12-18T11:00:37;100712.66;;;20.88;19.45
35655;BME280;21773;50.010;19.972;2022-12-18T11:03:42;100715.91;;;20.85;18.70
35655;BME280;21773;50.010;19.972;2022-12-18T11:06:55;100712.38;;;21.29;18.75
35655;BME280;21773;50.010;19.972;2022-12-18T11:10:01;100708.97;;;21.55;17.98
35655;BME280;21773;50.010;19.972;2022-12-18T11:13:15;100706.31;;;21.60;18.13
35655;BME280;21773;50.010;19.972;2022-12-18T11:16:21;100705.91;;;21.69;18.20
35655;BME280;21773;50.010;19.972;2022-12-18T11:19:33;100679.19;;;21.81;17.97
35655;BME280;21773;50.010;19.972;2022-12-18T11:22:37;100688.41;;;21.91;17.93
35655;BME280;21773;50.010;19.972;2022-12-18T11:25:51;100688.00;;;21.99;17.19
35655;BME280;21773;50.010;19.972;2022-12-18T11:29:10;100685.72;;;22.13;17.73
35655;BME280;21773;50.010;19.972;2022-12-18T11:32:29;100681.25;;;22.29;17.88
35655;BME280;21773;50.010;19.972;2022-12-18T11:35:42;100677.19;;;22.31;17.15
35655;BME280;21773;50.010;19.972;2022-12-18T11:38:51;100679.97;;;22.36;16.64
35655;BME280;21773;50.010;19.972;2022-12-18T11:42:01;100678.31;;;22.35;16.92
35655;BME280;21773;50.010;19.972;2022-12-18T11:45:27;100687.34;;;22.53;16.69
35655;BME280;21773;50.010;19.972;2022-12-18T11:48:34;100691.53;;;22.38;16.80
35655;BME280;21773;50.010;19.972;2022-12-18T11:51:46;100691.94;;;22.25;16.89
35655;BME280;21773;50.010;19.972;2022-12-18T11:54:52;100705.06;;;22.01;16.47
35655;BME280;21773;50.010;19.972;2022-12-18T11:58:05;100695.16;;;21.84;17.53
35655;BME280;21773;50.010;19.972;2022-12-18T12:01:28;100695.41;;;21.66;16.99
35655;BME280;21773;50.010;19.972;2022-12-18T12:04:59;100696.31;;;21.21;17.72
35655;BME280;21773;50.010;19.972;2022-12-18T12:08:12;100700.53;;;20.84;17.93
35655;BME280;21773;50.010;19.972;2022-12-18T12:11:22;100699.06;;;20.64;17.49
35655;BME280;21773;50.010;19.972;2022-12-18T12:14:42;100694.22;;;20.43;18.23
35655;BME280;21773;50.010;19.972;2022-12-18T12:17:55;100697.34;;;20.23;18.24
35655;BME280;21773;50.010;19.972;2022-12-18T12:21:06;100691.56;;;20.08;17.89
35655;BME280;21773;50.010;19.972;2022-12-18T12:24:25;100690.28;;;19.64;18.60
35655;BME280;21773;50.010;19.972;2022-12-18T12:27:42;100693.75;;;19.30;18.95
35655;BME280;21773;50.010;19.972;2022-12-18T12:30:58;100696.47;;;18.88;19.34
35655;BME280;21773;50.010;19.972;2022-12-18T12:34:11;100705.41;;;18.66;19.43
35655;BME280;21773;50.010;19.972;2022-12-18T12:37:28;100713.59;;;18.11;20.77
35655;BME280;21773;50.010;19.972;2022-12-18T12:40:41;100715.94;;;17.40;20.68
35655;BME280;21773;50.010;19.972;2022-12-18T12:44:04;100722.09;;;16.59;21.37
35655;BME280;21773;50.010;19.972;2022-12-18T12:47:14;100729.56;;;15.47;22.63
35655;BME280;21773;50.010;19.972;2022-12-18T12:50:20;100735.66;;;14.62;23.22
35655;BME280;21773;50.010;19.972;2022-12-18T12:53:29;100738.63;;;13.98;24.71
35655;BME280;21773;50.010;19.972;2022-12-18T12:56:39;100737.38;;;13.38;25.22
35655;BME280;21773;50.010;19.972;2022-12-18T12:59:51;100742.94;;;12.94;25.89
35655;BME280;21773;50.010;19.972;2022-12-18T13:03:07;100741.25;;;12.57;26.67
35655;BME280;21773;50.010;19.972;2022-12-18T13:06:17;100753.34;;;12.26;26.52
35655;BME280;21773;50.010;19.972;2022-12-18T13:09:25;100753.94;;;11.84;27.27
35655;BME280;21773;50.010;19.972;2022-12-18T13:12:35;100757.03;;;11.43;28.31
35655;BME280;21773;50.010;19.972;2022-12-18T13:16:04;100756.72;;;11.15;28.36
35655;BME280;21773;50.010;19.972;2022-12-18T13:19:22;100757.97;;;10.82;28.81
35655;BME280;21773;50.010;19.972;2022-12-18T13:22:30;100764.44;;;10.34;29.52
35655;BME280;21773;50.010;19.972;2022-12-18T13:25:37;100764.25;;;9.56;30.55
35655;BME280;21773;50.010;19.972;2022-12-18T13:28:51;100763.59;;;9.22;31.12
35655;BME280;21773;50.010;19.972;2022-12-18T13:32:00;100767.25;;;8.38;32.47
35655;BME280;21773;50.010;19.972;2022-12-18T13:35:38;100766.78;;;8.17;32.94
35655;BME280;21773;50.010;19.972;2022-12-18T13:38:42;100768.38;;;8.02;33.41
35655;BME280;21773;50.010;19.972;2022-12-18T13:41:49;100750.22;;;7.70;33.63
35655;BME280;21773;50.010;19.972;2022-12-18T13:44:53;100783.59;;;7.67;34.09
35655;BME280;21773;50.010;19.972;2022-12-18T13:47:58;100783.25;;;7.45;34.26
35655;BME280;21773;50.010;19.972;2022-12-18T13:51:04;100782.91;;;7.22;34.86
35655;BME280;21773;50.010;19.972;2022-12-18T13:54:18;100797.84;;;7.07;35.27
35655;BME280;21773;50.010;19.972;2022-12-18T13:57:28;100795.59;;;6.84;35.83
35655;BME280;21773;50.010;19.972;2022-12-18T14:00:32;100806.75;;;6.62;36.26
35655;BME280;21773;50.010;19.972;2022-12-18T14:03:36;100797.41;;;6.39;36.71
35655;BME280;21773;50.010;19.972;2022-12-18T14:06:39;100799.34;;;6.19;37.12
35655;BME280;21773;50.010;19.972;2022-12-18T14:09:47;100817.75;;;5.95;37.80
35655;BME280;21773;50.010;19.972;2022-12-18T14:13:03;100822.00;;;5.59;38.41
35655;BME280;21773;50.010;19.972;2022-12-18T14:16:14;100819.34;;;5.40;38.98
35655;BME280;21773;50.010;19.972;2022-12-18T14:19:18;100796.09;;;4.92;39.25
35655;BME280;21773;50.010;19.972;2022-12-18T14:22:24;100821.97;;;4.82;39.78
35655;BME280;21773;50.010;19.972;2022-12-18T14:25:32;100819.75;;;4.47;40.25
35655;BME280;21773;50.010;19.972;2022-12-18T14:28:43;100828.81;;;4.25;40.63
35655;BME280;21773;50.010;19.972;2022-12-18T14:31:46;100823.47;;;3.95;41.17
35655;BME280;21773;50.010;19.972;2022-12-18T14:35:12;100832.53;;;3.62;41.87
35655;BME280;21773;50.010;19.972;2022-12-18T14:38:25;100827.66;;;3.46;42.12
35655;BME280;21773;50.010;19.972;2022-12-18T14:41:29;100835.34;;;3.29;42.56
35655;BME280;21773;50.010;19.972;2022-12-18T14:44:36;100833.41;;;2.99;42.96
35655;BME280;21773;50.010;19.972;2022-12-18T14:48:00;100851.75;;;2.81;43.33
35655;BME280;21773;50.010;19.972;2022-12-18T14:51:05;100845.75;;;2.57;44.05
35655;BME280;21773;50.010;19.972;2022-12-18T14:54:16;100864.38;;;2.35;44.50
35655;BME280;21773;50.010;19.972;2022-12-18T14:57:22;100852.91;;;2.23;44.74
35655;BME280;21773;50.010;19.972;2022-12-18T15:00:28;100848.75;;;1.97;45.58
35655;BME280;21773;50.010;19.972;2022-12-18T15:03:31;100851.19;;;2.00;45.28
35655;BME280;21773;50.010;19.972;2022-12-18T15:06:36;100846.56;;;1.91;45.32
35655;BME280;21773;50.010;19.972;2022-12-18T15:09:43;100845.00;;;1.88;45.37
35655;BME280;21773;50.010;19.972;2022-12-18T15:12:48;100840.75;;;1.74;45.93
35655;BME280;21773;50.010;19.972;2022-12-18T15:15:54;100851.84;;;1.68;45.67
35655;BME280;21773;50.010;19.972;2022-12-18T15:19:00;100854.13;;;1.62;46.14
35655;BME280;21773;50.010;19.972;2022-12-18T15:22:04;100838.88;;;1.53;45.82
35655;BME280;21773;50.010;19.972;2022-12-18T15:25:26;100852.16;;;1.53;45.91
35655;BME280;21773;50.010;19.972;2022-12-18T15:28:35;100853.47;;;1.47;46.69
35655;BME280;21773;50.010;19.972;2022-12-18T15:31:42;100856.13;;;1.47;46.05
35655;BME280;21773;50.010;19.972;2022-12-18T15:34:47;100865.75;;;1.37;46.23
35655;BME280;21773;50.010;19.972;2022-12-18T15:37:51;100863.22;;;1.36;46.59
35655;BME280;21773;50.010;19.972;2022-12-18T15:40:55;100869.84;;;1.30;46.54
35655;BME280;21773;50.010;19.972;2022-12-18T15:43:58;100876.22;;;1.27;46.45
35655;BME280;21773;50.010;19.972;2022-12-18T15:47:09;100872.25;;;1.22;46.63
35655;BME280;21773;50.010;19.972;2022-12-18T15:50:13;100874.25;;;1.18;47.23
35655;BME280;21773;50.010;19.972;2022-12-18T15:53:17;100877.25;;;1.14;46.90
35655;BME280;21773;50.010;19.972;2022-12-18T15:56:22;100880.47;;;1.06;46.91
35655;BME280;21773;50.010;19.972;2022-12-18T15:59:43;100892.31;;;1.02;47.05
35655;BME280;21773;50.010;19.972;2022-12-18T16:02:48;100892.00;;;0.94;47.61
35655;BME280;21773;50.010;19.972;2022-12-18T16:05:51;100887.53;;;0.95;47.19
35655;BME280;21773;50.010;19.972;2022-12-18T16:08:55;100893.78;;;0.94;47.35
35655;BME280;21773;50.010;19.972;2022-12-18T16:11:58;100889.47;;;0.93;47.03
35655;BME280;21773;50.010;19.972;2022-12-18T16:15:02;100904.38;;;0.82;47.54
35655;BME280;21773;50.010;19.972;2022-12-18T16:18:08;100902.16;;;0.76;47.48